KCXO/CXO METAR and TAF weather

Enter ICAO airport designator
Station Type Date Time Source
KCXO METAR 2021/01/22 07:25 UTC NOAA

KCXO 220725Z AUTO 00000KT 4SM BR BKN014 OVC020 17/16 A2991 RMK AO2 RAE19 P0001 T01670156


Station Type Date Time Source
KCXO Decoded METAR 2021/01/22 07:25 UTC NOAA

LONE STAR EXECUTIVE AIRPORT, TX, United States (KCXO) 30-21N 95-25W 75M
Jan 22, 2021 - 02:25 AM EST / 2021.01.22 0725 UTC
Wind: Calm:0
Visibility: 4 mile(s):0
Sky conditions: overcast
Weather: mist
Precipitation last hour: 0.01 inches
Temperature: 62.1 F (16.7 C)
Dew Point: 60.1 F (15.6 C)
Relative Humidity: 93%
Pressure (altimeter): 29.91 in. Hg (1012 hPa)
ob: KCXO 220725Z AUTO 00000KT 4SM BR BKN014 OVC020 17/16 A2991 RMK AO2 RAE19 P0001 T01670156
cycle: 7

Station Type Date Time Source
KCXO TAF 2021/01/22 07:51 UTC NOAA

TAF
AMD KCXO 220649Z 2207/2306 00000KT 3SM -SHRA BR SCT010 OVC020
FM220900 VRB02KT 3/4SM BR VCSH OVC004
FM221300 VRB02KT 1SM BR OVC004
FM221600 VRB01KT 4SM BR BKN004 OVC015
FM221900 VRB02KT 6SM BR BKN015 OVC045
FM230300 VRB02KT 6SM BR OVC007

Example: see airport list